createdAt,value
2018-06-11T00:00:05.077Z,973.83
2018-06-11T00:01:05.578Z,973.86
2018-06-11T00:02:05.906Z,973.86
2018-06-11T00:03:05.358Z,973.77
2018-06-11T00:04:06.044Z,973.80
2018-06-11T00:05:10.969Z,973.89
2018-06-11T00:06:06.504Z,973.80
2018-06-11T00:07:05.536Z,973.83
2018-06-11T00:08:05.645Z,973.83
2018-06-11T00:09:05.422Z,973.83
2018-06-11T00:10:05.158Z,973.81
2018-06-11T00:11:05.248Z,973.78
2018-06-11T00:12:05.877Z,973.72
2018-06-11T00:13:05.716Z,973.89
2018-06-11T00:14:05.772Z,973.63
2018-06-11T00:15:06.237Z,973.66
2018-06-11T00:16:05.794Z,973.63
2018-06-11T00:17:05.694Z,973.66
2018-06-11T00:18:05.890Z,973.69
2018-06-11T00:19:05.589Z,973.72
2018-06-11T00:20:05.997Z,973.69
2018-06-11T00:21:05.105Z,973.53
2018-06-11T00:22:05.828Z,973.58
2018-06-11T00:23:05.642Z,973.64
2018-06-11T00:24:05.675Z,973.61
2018-06-11T00:25:05.758Z,973.67
2018-06-11T00:26:05.553Z,973.64
2018-06-11T00:27:05.643Z,973.76
2018-06-11T00:28:05.809Z,973.67
2018-06-11T00:29:05.102Z,973.64
2018-06-11T00:30:05.162Z,973.76
2018-06-11T00:31:06.631Z,973.67
2018-06-11T00:32:10.881Z,973.70
2018-06-11T00:33:06.158Z,973.73
2018-06-11T00:34:05.413Z,973.67
2018-06-11T00:35:05.092Z,973.65
2018-06-11T00:36:05.652Z,973.76
2018-06-11T00:37:05.898Z,973.79
2018-06-11T00:38:05.071Z,973.82
2018-06-11T00:39:05.989Z,973.68
2018-06-11T00:40:05.425Z,973.74
2018-06-11T00:41:05.431Z,973.52
2018-06-11T00:42:05.290Z,973.62
2018-06-11T00:43:05.411Z,973.59
2018-06-11T00:44:05.901Z,973.62
2018-06-11T00:45:08.700Z,973.74
2018-06-11T00:46:05.647Z,973.57
2018-06-11T00:47:05.655Z,973.65
2018-06-11T00:48:05.785Z,973.59
2018-06-11T00:49:05.351Z,973.65
2018-06-11T00:50:06.006Z,973.71
2018-06-11T00:51:05.829Z,973.57
2018-06-11T00:52:05.690Z,973.60
2018-06-11T00:53:05.826Z,973.74
2018-06-11T00:54:05.917Z,973.62
2018-06-11T00:55:05.088Z,973.54
2018-06-11T00:56:05.594Z,973.71
2018-06-11T00:57:05.475Z,973.60
2018-06-11T00:58:05.869Z,973.54
2018-06-11T00:59:05.194Z,973.62
2018-06-11T01:00:05.069Z,973.60
2018-06-11T01:01:05.255Z,973.65
2018-06-11T01:02:05.258Z,973.57
2018-06-11T01:03:05.281Z,973.68
2018-06-11T01:04:05.368Z,973.60
2018-06-11T01:05:05.478Z,973.63
2018-06-11T01:06:05.826Z,973.49
2018-06-11T01:07:06.068Z,973.46
2018-06-11T01:08:06.155Z,973.38
2018-06-11T01:09:05.083Z,973.53
2018-06-11T01:10:05.048Z,973.55
2018-06-11T01:11:05.124Z,973.47
2018-06-11T01:12:05.321Z,973.44
2018-06-11T01:13:05.338Z,973.53
2018-06-11T01:14:05.929Z,973.58
2018-06-11T01:15:10.566Z,973.64
2018-06-11T01:16:05.782Z,973.47
2018-06-11T01:17:05.164Z,973.55
2018-06-11T01:18:10.848Z,973.58
2018-06-11T01:19:06.151Z,973.41
2018-06-11T01:20:05.421Z,973.53
2018-06-11T01:21:05.023Z,973.61
2018-06-11T01:22:10.364Z,973.50
2018-06-11T01:23:05.610Z,973.58
2018-06-11T01:24:05.685Z,973.58
2018-06-11T01:25:05.246Z,973.72
2018-06-11T01:26:05.906Z,973.53
2018-06-11T01:27:05.064Z,973.72
2018-06-11T01:28:05.091Z,973.64
2018-06-11T01:29:05.190Z,973.72
2018-06-11T01:30:05.715Z,973.81
2018-06-11T01:31:05.367Z,973.78
2018-06-11T01:32:05.268Z,973.75
2018-06-11T01:33:07.003Z,973.76
2018-06-11T01:34:05.830Z,973.58
2018-06-11T01:35:05.828Z,973.64
2018-06-11T01:36:05.915Z,973.55
2018-06-11T01:37:05.808Z,973.67
2018-06-11T01:38:05.043Z,973.64
2018-06-11T01:39:05.223Z,973.53
2018-06-11T01:40:05.407Z,973.48
2018-06-11T01:41:05.558Z,973.70
2018-06-11T01:42:05.856Z,973.61
2018-06-11T01:43:05.009Z,973.64
2018-06-11T01:44:05.128Z,973.67
2018-06-11T01:45:05.161Z,973.67
2018-06-11T01:46:05.021Z,973.69
2018-06-11T01:47:05.196Z,973.64
2018-06-11T01:48:05.484Z,973.72
2018-06-11T01:49:05.232Z,973.87
2018-06-11T01:50:04.969Z,973.75
2018-06-11T01:51:05.599Z,973.75
2018-06-11T01:52:05.727Z,973.57
2018-06-11T01:53:06.005Z,973.69
2018-06-11T01:54:11.078Z,973.72
2018-06-11T01:55:04.942Z,973.57
2018-06-11T01:56:05.106Z,973.55
2018-06-11T01:57:05.206Z,973.55
2018-06-11T01:58:05.441Z,973.60
2018-06-11T01:59:05.588Z,973.55
2018-06-11T02:00:05.584Z,973.60
2018-06-11T02:01:05.090Z,973.72
2018-06-11T02:02:11.071Z,973.53
2018-06-11T02:03:05.995Z,973.54
2018-06-11T02:04:05.206Z,973.47
2018-06-11T02:05:05.263Z,973.50
2018-06-11T02:06:05.344Z,973.44
2018-06-11T02:07:05.809Z,973.60
2018-06-11T02:08:05.798Z,973.52
2018-06-11T02:09:05.683Z,973.54
2018-06-11T02:10:05.568Z,973.54
2018-06-11T02:11:05.717Z,973.46
2018-06-11T02:12:05.252Z,973.69
2018-06-11T02:13:04.922Z,973.57
2018-06-11T02:14:05.358Z,973.52
2018-06-11T02:15:05.550Z,973.66
2018-06-11T02:16:05.145Z,973.57
2018-06-11T02:17:05.896Z,973.71
2018-06-11T02:18:05.587Z,973.60
2018-06-11T02:19:05.681Z,973.57
2018-06-11T02:20:05.262Z,973.57
2018-06-11T02:21:05.696Z,973.60
2018-06-11T02:22:05.414Z,973.68
2018-06-11T02:23:05.616Z,973.43
2018-06-11T02:24:05.648Z,973.41
2018-06-11T02:25:05.576Z,973.63
2018-06-11T02:26:05.472Z,973.60
2018-06-11T02:27:05.524Z,973.60
2018-06-11T02:28:05.786Z,973.60
2018-06-11T02:29:05.983Z,973.66
2018-06-11T02:30:05.083Z,973.89
2018-06-11T02:31:05.092Z,973.80
2018-06-11T02:32:05.480Z,973.68
2018-06-11T02:33:05.658Z,973.63
2018-06-11T02:34:05.264Z,973.68
2018-06-11T02:35:05.699Z,973.77
2018-06-11T02:36:05.695Z,973.68
2018-06-11T02:37:05.839Z,973.74
2018-06-11T02:38:05.684Z,973.83
2018-06-11T02:39:05.886Z,973.68
2018-06-11T02:40:05.586Z,973.68
2018-06-11T02:41:06.282Z,973.65
2018-06-11T02:42:05.688Z,973.80
2018-06-11T02:43:06.236Z,973.62
2018-06-11T02:44:05.212Z,973.68
2018-06-11T02:45:05.571Z,973.74
2018-06-11T02:46:05.039Z,973.68
2018-06-11T02:47:05.667Z,973.68
2018-06-11T02:48:05.277Z,973.65
2018-06-11T02:49:05.924Z,973.65
2018-06-11T02:50:05.114Z,973.54
2018-06-11T02:51:05.360Z,973.71
2018-06-11T02:52:06.218Z,973.65
2018-06-11T02:53:05.513Z,973.74
2018-06-11T02:54:05.800Z,973.65
2018-06-11T02:55:06.939Z,973.77
2018-06-11T02:56:05.931Z,973.68
2018-06-11T02:57:05.697Z,973.77
2018-06-11T02:58:05.583Z,973.62
2018-06-11T02:59:05.418Z,973.68
2018-06-11T03:00:05.342Z,973.71
2018-06-11T03:01:05.293Z,973.71
2018-06-11T03:02:05.327Z,973.71
2018-06-11T03:03:05.590Z,973.68
2018-06-11T03:04:05.505Z,973.74
2018-06-11T03:05:05.056Z,973.71
2018-06-11T03:06:05.260Z,973.82
2018-06-11T03:07:05.329Z,973.54
2018-06-11T03:08:06.205Z,973.82
2018-06-11T03:09:06.148Z,973.73
2018-06-11T03:10:05.421Z,973.68
2018-06-11T03:11:05.196Z,973.70
2018-06-11T03:12:06.519Z,973.79
2018-06-11T03:13:05.502Z,973.56
2018-06-11T03:14:05.261Z,973.73
2018-06-11T03:15:05.106Z,973.82
2018-06-11T03:16:05.479Z,973.82
2018-06-11T03:17:05.457Z,973.79
2018-06-11T03:18:05.592Z,973.58
2018-06-11T03:19:05.395Z,973.70
2018-06-11T03:20:05.712Z,973.64
2018-06-11T03:21:05.348Z,973.67
2018-06-11T03:22:05.382Z,973.75
2018-06-11T03:23:06.642Z,973.84
2018-06-11T03:24:05.718Z,973.75
2018-06-11T03:25:05.139Z,973.78
2018-06-11T03:26:05.218Z,973.67
2018-06-11T03:27:05.880Z,973.78
2018-06-11T03:28:06.177Z,973.95
2018-06-11T03:29:05.348Z,973.78
2018-06-11T03:30:05.476Z,973.87
2018-06-11T03:31:10.268Z,973.84
2018-06-11T03:32:05.537Z,973.72
2018-06-11T03:33:05.795Z,973.75
2018-06-11T03:34:05.833Z,973.80
2018-06-11T03:35:05.409Z,973.78
2018-06-11T03:36:05.143Z,973.86
2018-06-11T03:37:05.377Z,973.83
2018-06-11T03:38:05.137Z,973.75
2018-06-11T03:39:05.360Z,973.80
2018-06-11T03:40:05.348Z,973.77
2018-06-11T03:41:05.243Z,973.66
2018-06-11T03:42:05.051Z,973.66
2018-06-11T03:43:06.029Z,973.72
2018-06-11T03:44:05.083Z,973.77
2018-06-11T03:45:05.203Z,973.69
2018-06-11T03:46:05.149Z,973.60
2018-06-11T03:47:05.052Z,973.74
2018-06-11T03:48:05.554Z,973.74
2018-06-11T03:49:05.353Z,973.74
2018-06-11T03:50:05.368Z,973.71
2018-06-11T03:51:10.453Z,973.77
2018-06-11T03:52:05.430Z,973.77
2018-06-11T03:53:05.768Z,973.83
2018-06-11T03:54:05.326Z,973.77
2018-06-11T03:55:05.998Z,973.74
2018-06-11T03:56:05.635Z,973.77
2018-06-11T03:57:06.110Z,973.80
2018-06-11T03:58:05.681Z,973.74
2018-06-11T03:59:05.311Z,973.80
2018-06-11T04:00:06.029Z,973.71
2018-06-11T04:01:04.959Z,973.71
2018-06-11T04:02:05.165Z,973.85
2018-06-11T04:03:05.230Z,973.88
2018-06-11T04:04:05.444Z,973.71
2018-06-11T04:05:05.626Z,973.65
2018-06-11T04:06:05.137Z,973.73
2018-06-11T04:07:05.610Z,973.67
2018-06-11T04:08:05.599Z,973.79
2018-06-11T04:09:05.588Z,973.82
2018-06-11T04:10:05.844Z,973.88
2018-06-11T04:11:06.017Z,973.93
2018-06-11T04:12:05.269Z,973.70
2018-06-11T04:13:05.496Z,973.82
2018-06-11T04:14:05.184Z,973.88
2018-06-11T04:15:05.320Z,973.79
2018-06-11T04:16:05.583Z,973.76
2018-06-11T04:17:05.705Z,973.76
2018-06-11T04:18:05.061Z,973.88
2018-06-11T04:19:05.348Z,973.79
2018-06-11T04:20:05.171Z,973.88
2018-06-11T04:21:06.003Z,973.88
2018-06-11T04:22:05.176Z,973.96
2018-06-11T04:23:05.335Z,973.88
2018-06-11T04:24:05.221Z,973.91
2018-06-11T04:25:06.053Z,973.99
2018-06-11T04:26:05.501Z,973.90
2018-06-11T04:27:06.711Z,973.87
2018-06-11T04:28:05.780Z,973.85
2018-06-11T04:29:05.734Z,973.85
2018-06-11T04:30:05.537Z,973.90
2018-06-11T04:31:05.267Z,973.93
2018-06-11T04:32:05.109Z,973.87
2018-06-11T04:33:05.299Z,973.90
2018-06-11T04:34:05.312Z,973.93
2018-06-11T04:35:05.430Z,973.93
2018-06-11T04:36:05.974Z,974.02
2018-06-11T04:37:05.574Z,974.08
2018-06-11T04:38:05.627Z,973.87
2018-06-11T04:39:05.895Z,974.08
2018-06-11T04:40:06.088Z,973.99
2018-06-11T04:41:05.580Z,974.13
2018-06-11T04:42:05.515Z,974.02
2018-06-11T04:43:06.617Z,974.08
2018-06-11T04:44:05.695Z,974.19
2018-06-11T04:45:05.368Z,973.96
2018-06-11T04:46:05.481Z,974.05
2018-06-11T04:47:10.479Z,974.11
2018-06-11T04:48:05.855Z,974.05
2018-06-11T04:49:05.278Z,974.10
2018-06-11T04:50:05.168Z,973.96
2018-06-11T04:51:05.857Z,974.10
2018-06-11T04:52:05.279Z,973.93
2018-06-11T04:53:06.603Z,973.96
2018-06-11T04:54:05.500Z,974.02
2018-06-11T04:55:05.138Z,974.11
2018-06-11T04:56:05.591Z,973.99
2018-06-11T04:57:05.849Z,974.02
2018-06-11T04:58:05.516Z,973.93
2018-06-11T04:59:06.252Z,973.90
2018-06-11T05:00:10.925Z,973.88
2018-06-11T05:01:05.289Z,973.96
2018-06-11T05:02:10.346Z,973.88
2018-06-11T05:03:05.260Z,973.93
2018-06-11T05:04:05.168Z,974.02
2018-06-11T05:05:05.713Z,973.76
2018-06-11T05:06:06.009Z,973.96
2018-06-11T05:07:06.606Z,973.99
2018-06-11T05:08:05.221Z,973.96
2018-06-11T05:09:05.612Z,973.96
2018-06-11T05:10:05.186Z,974.05
2018-06-11T05:11:05.935Z,974.02
2018-06-11T05:12:05.351Z,974.16
2018-06-11T05:13:05.568Z,974.08
2018-06-11T05:14:05.050Z,974.11
2018-06-11T05:15:05.658Z,973.99
2018-06-11T05:16:05.349Z,974.08
2018-06-11T05:17:05.932Z,974.05
2018-06-11T05:18:05.935Z,974.11
2018-06-11T05:19:05.432Z,974.08
2018-06-11T05:20:05.588Z,974.20
2018-06-11T05:21:05.529Z,974.06
2018-06-11T05:22:05.475Z,974.00
2018-06-11T05:23:05.395Z,974.08
2018-06-11T05:24:05.923Z,974.11
2018-06-11T05:25:05.793Z,974.14
2018-06-11T05:26:05.036Z,974.11
2018-06-11T05:27:05.143Z,974.12
2018-06-11T05:28:06.027Z,973.97
2018-06-11T05:29:05.485Z,974.03
2018-06-11T05:30:05.697Z,973.94
2018-06-11T05:31:05.824Z,974.06
2018-06-11T05:32:05.707Z,973.89
2018-06-11T05:33:05.647Z,974.03
2018-06-11T05:34:05.770Z,974.03
2018-06-11T05:35:05.324Z,974.03
2018-06-11T05:36:04.997Z,973.91
2018-06-11T05:37:05.501Z,973.91
2018-06-11T05:38:05.601Z,973.92
2018-06-11T05:39:05.156Z,973.92
2018-06-11T05:40:05.875Z,973.94
2018-06-11T05:41:05.747Z,974.00
2018-06-11T05:42:05.708Z,973.89
2018-06-11T05:43:05.826Z,974.01
2018-06-11T05:44:05.833Z,973.98
2018-06-11T05:45:05.121Z,973.98
2018-06-11T05:46:05.489Z,973.98
2018-06-11T05:47:05.055Z,974.06
2018-06-11T05:48:06.286Z,974.06
2018-06-11T05:49:06.104Z,974.04
2018-06-11T05:50:05.847Z,973.98
2018-06-11T05:51:10.042Z,974.09
2018-06-11T05:52:05.417Z,973.95
2018-06-11T05:53:05.050Z,973.95
2018-06-11T05:54:05.216Z,974.09
2018-06-11T05:55:05.105Z,973.98
2018-06-11T05:56:06.033Z,974.15
2018-06-11T05:57:05.211Z,973.98
2018-06-11T05:58:05.354Z,973.95
2018-06-11T05:59:05.532Z,973.92
2018-06-11T06:00:05.903Z,974.09
2018-06-11T06:01:05.515Z,974.04
2018-06-11T06:02:05.708Z,974.07
2018-06-11T06:03:05.747Z,974.10
2018-06-11T06:04:06.195Z,974.10
2018-06-11T06:05:05.354Z,974.10
2018-06-11T06:06:05.463Z,974.07
2018-06-11T06:07:05.648Z,974.12
2018-06-11T06:08:05.429Z,974.04
2018-06-11T06:09:05.516Z,973.98
2018-06-11T06:10:06.097Z,974.04
2018-06-11T06:11:05.041Z,974.10
2018-06-11T06:12:05.263Z,974.09
2018-06-11T06:13:06.172Z,974.10
2018-06-11T06:14:05.621Z,974.01
2018-06-11T06:15:06.253Z,974.18
2018-06-11T06:16:05.063Z,974.07
2018-06-11T06:17:05.339Z,974.12
2018-06-11T06:18:05.910Z,974.12
2018-06-11T06:19:05.883Z,974.15
2018-06-11T06:20:05.210Z,974.07
2018-06-11T06:21:05.881Z,973.98
2018-06-11T06:22:15.768Z,974.12
2018-06-11T06:23:06.330Z,974.12
2018-06-11T06:24:05.120Z,973.95
2018-06-11T06:25:05.615Z,974.01
2018-06-11T06:26:05.559Z,974.01
2018-06-11T06:27:05.348Z,974.04
2018-06-11T06:28:05.262Z,974.07
2018-06-11T06:29:05.931Z,974.04
2018-06-11T06:30:05.921Z,974.07
2018-06-11T06:31:05.910Z,974.07
2018-06-11T06:32:10.512Z,974.10
2018-06-11T06:33:06.526Z,974.13
2018-06-11T06:34:05.455Z,973.93
2018-06-11T06:35:05.297Z,973.93
2018-06-11T06:36:05.874Z,973.99
2018-06-11T06:37:05.556Z,974.10
2018-06-11T06:38:05.880Z,973.99
2018-06-11T06:39:05.621Z,973.96
2018-06-11T06:40:05.741Z,973.93
2018-06-11T06:41:05.170Z,973.96
2018-06-11T06:42:05.571Z,973.87
2018-06-11T06:43:05.781Z,973.78
2018-06-11T06:44:05.416Z,974.07
2018-06-11T06:45:05.545Z,973.87
2018-06-11T06:46:05.389Z,973.78
2018-06-11T06:47:05.933Z,973.93
2018-06-11T06:48:05.219Z,973.84
2018-06-11T06:49:05.273Z,974.04
2018-06-11T06:50:05.829Z,973.99
2018-06-11T06:51:05.755Z,973.93
2018-06-11T06:52:05.552Z,973.98
2018-06-11T06:53:05.026Z,973.95
2018-06-11T06:54:05.676Z,973.92
2018-06-11T06:55:10.580Z,974.10
2018-06-11T06:56:05.488Z,973.86
2018-06-11T06:57:05.026Z,973.83
2018-06-11T06:58:05.253Z,973.95
2018-06-11T06:59:05.629Z,973.95
2018-06-11T07:00:05.787Z,974.00
2018-06-11T07:01:05.740Z,974.09
2018-06-11T07:02:05.327Z,974.00
2018-06-11T07:03:05.236Z,974.00
2018-06-11T07:04:05.598Z,973.94
2018-06-11T07:05:05.958Z,973.97
2018-06-11T07:06:05.212Z,973.91
2018-06-11T07:07:05.649Z,973.82
2018-06-11T07:08:06.159Z,973.94
2018-06-11T07:09:05.877Z,974.06
2018-06-11T07:10:05.169Z,973.97
2018-06-11T07:11:05.144Z,973.97
2018-06-11T07:12:05.656Z,974.03
2018-06-11T07:13:05.482Z,974.03
2018-06-11T07:14:05.453Z,974.03
2018-06-11T07:15:05.770Z,974.09
2018-06-11T07:16:04.971Z,973.97
2018-06-11T07:17:05.106Z,973.86
2018-06-11T07:18:05.033Z,973.95
2018-06-11T07:19:05.145Z,974.12
2018-06-11T07:20:05.807Z,973.98
2018-06-11T07:21:06.176Z,974.01
2018-06-11T07:22:05.316Z,974.09
2018-06-11T07:23:05.742Z,974.04
2018-06-11T07:24:05.836Z,973.86
2018-06-11T07:25:05.928Z,974.07
2018-06-11T07:26:05.157Z,974.04
2018-06-11T07:27:05.508Z,974.01
2018-06-11T07:28:05.293Z,973.98
2018-06-11T07:29:05.591Z,974.10
2018-06-11T07:30:05.473Z,974.21
2018-06-11T07:31:05.346Z,974.21
2018-06-11T07:32:05.367Z,974.21
2018-06-11T07:33:05.063Z,974.16
2018-06-11T07:34:05.123Z,974.30
2018-06-11T07:35:06.005Z,974.25
2018-06-11T07:36:05.344Z,974.33
2018-06-11T07:37:05.925Z,974.25
2018-06-11T07:38:06.281Z,974.31
2018-06-11T07:39:05.638Z,974.28
2018-06-11T07:40:05.935Z,974.31
2018-06-11T07:41:05.842Z,974.34
2018-06-11T07:42:05.454Z,974.11
2018-06-11T07:43:05.551Z,974.16
2018-06-11T07:44:05.821Z,974.14
2018-06-11T07:45:05.803Z,974.17
2018-06-11T07:46:05.247Z,974.14
2018-06-11T07:47:05.411Z,974.14
2018-06-11T07:48:05.339Z,974.17
2018-06-11T07:49:05.795Z,974.17
2018-06-11T07:50:05.147Z,974.28
2018-06-11T07:51:05.665Z,974.11
2018-06-11T07:52:05.937Z,974.26
2018-06-11T07:53:10.661Z,974.11
2018-06-11T07:54:06.203Z,974.31
2018-06-11T07:55:05.905Z,974.17
2018-06-11T07:56:06.345Z,974.14
2018-06-11T07:57:05.634Z,974.02
2018-06-11T07:58:05.742Z,974.11
2018-06-11T07:59:05.411Z,974.05
2018-06-11T08:00:04.955Z,974.26
2018-06-11T08:01:05.215Z,974.17
2018-06-11T08:02:05.718Z,974.11
2018-06-11T08:03:05.776Z,974.23
2018-06-11T08:04:05.195Z,974.14
2018-06-11T08:05:05.132Z,974.26
2018-06-11T08:06:05.433Z,974.08
2018-06-11T08:07:05.257Z,974.20
2018-06-11T08:08:05.707Z,974.26
2018-06-11T08:09:05.718Z,974.31
2018-06-11T08:10:06.414Z,974.26
2018-06-11T08:11:05.833Z,974.37
2018-06-11T08:12:05.752Z,974.23
2018-06-11T08:13:05.359Z,974.40
2018-06-11T08:14:05.650Z,974.46
2018-06-11T08:15:05.048Z,974.31
2018-06-11T08:16:10.148Z,974.37
2018-06-11T08:17:05.255Z,974.37
2018-06-11T08:18:05.049Z,974.55
2018-06-11T08:19:05.125Z,974.66
2018-06-11T08:20:05.907Z,974.58
2018-06-11T08:21:05.939Z,974.55
2018-06-11T08:22:05.894Z,974.69
2018-06-11T08:23:05.409Z,974.52
2018-06-11T08:24:06.176Z,974.67
2018-06-11T08:25:06.338Z,974.75
2018-06-11T08:26:05.503Z,974.69
2018-06-11T08:27:05.701Z,974.61
2018-06-11T08:28:05.092Z,974.70
2018-06-11T08:29:05.081Z,974.67
2018-06-11T08:30:05.273Z,974.67
2018-06-11T08:31:10.771Z,974.69
2018-06-11T08:32:05.798Z,974.72
2018-06-11T08:33:05.511Z,974.78
2018-06-11T08:34:05.439Z,974.55
2018-06-11T08:35:06.606Z,974.67
2018-06-11T08:36:05.317Z,974.61
2018-06-11T08:37:05.590Z,974.75
2018-06-11T08:38:05.622Z,974.64
2018-06-11T08:39:05.248Z,974.69
2018-06-11T08:40:05.878Z,974.67
2018-06-11T08:41:06.288Z,974.72
2018-06-11T08:42:05.355Z,974.64
2018-06-11T08:43:05.133Z,974.69
2018-06-11T08:44:05.290Z,974.69
2018-06-11T08:45:05.757Z,974.61
2018-06-11T08:46:05.826Z,974.67
2018-06-11T08:47:05.552Z,974.64
2018-06-11T08:48:05.829Z,974.67
2018-06-11T08:49:05.587Z,974.64
2018-06-11T08:50:10.871Z,974.67
2018-06-11T08:51:05.594Z,974.78
2018-06-11T08:52:05.545Z,974.78
2018-06-11T08:53:05.558Z,974.58
2018-06-11T08:54:05.409Z,974.58
2018-06-11T08:55:05.238Z,974.64
2018-06-11T08:56:05.479Z,974.67
2018-06-11T08:57:06.930Z,974.47
2018-06-11T08:58:05.661Z,974.46
2018-06-11T08:59:10.787Z,974.55
2018-06-11T09:00:06.107Z,974.61
2018-06-11T09:01:05.680Z,974.73
2018-06-11T09:02:05.550Z,974.55
2018-06-11T09:03:10.276Z,974.61
2018-06-11T09:04:05.461Z,974.70
2018-06-11T09:05:05.591Z,974.69
2018-06-11T09:06:05.762Z,974.67
2018-06-11T09:07:10.735Z,974.64
2018-06-11T09:08:04.984Z,974.58
2018-06-11T09:09:05.944Z,974.69
2018-06-11T09:10:06.047Z,974.58
2018-06-11T09:11:10.772Z,974.64
2018-06-11T09:12:05.755Z,974.55
2018-06-11T09:13:05.923Z,974.52
2018-06-11T09:14:05.738Z,974.57
2018-06-11T09:15:05.833Z,974.52
2018-06-11T09:16:05.894Z,974.55
2018-06-11T09:17:05.904Z,974.57
2018-06-11T09:18:06.054Z,974.55
2018-06-11T09:19:05.986Z,974.57
2018-06-11T09:20:05.769Z,974.69
2018-06-11T09:21:06.302Z,974.63
2018-06-11T09:22:05.766Z,974.57
2018-06-11T09:23:05.312Z,974.63
2018-06-11T09:24:05.876Z,974.60
2018-06-11T09:25:05.766Z,974.57
2018-06-11T09:26:05.952Z,974.63
2018-06-11T09:27:05.661Z,974.77
2018-06-11T09:28:05.630Z,974.69
2018-06-11T09:29:06.296Z,974.51
2018-06-11T09:30:05.796Z,974.54
2018-06-11T09:31:05.461Z,974.66
2018-06-11T09:32:05.442Z,974.51
2018-06-11T09:33:05.582Z,974.45
2018-06-11T09:34:05.927Z,974.57
2018-06-11T09:35:05.929Z,974.63
2018-06-11T09:36:05.351Z,974.57
2018-06-11T09:37:05.529Z,974.45
2018-06-11T09:38:05.460Z,974.57
2018-06-11T09:39:05.120Z,974.48
2018-06-11T09:40:05.612Z,974.39
2018-06-11T09:41:05.577Z,974.39
2018-06-11T09:42:05.459Z,974.39
2018-06-11T09:43:05.850Z,974.45
2018-06-11T09:44:05.384Z,974.42
2018-06-11T09:45:05.427Z,974.42
2018-06-11T09:46:05.923Z,974.45
2018-06-11T09:47:05.646Z,974.39
2018-06-11T09:48:05.764Z,974.54
2018-06-11T09:49:05.668Z,974.45
2018-06-11T09:50:05.876Z,974.51
2018-06-11T09:51:05.949Z,974.54
2018-06-11T09:52:06.917Z,974.51
2018-06-11T09:53:06.071Z,974.48
2018-06-11T09:54:05.577Z,974.45
2018-06-11T09:55:05.340Z,974.42
2018-06-11T09:56:05.566Z,974.51
2018-06-11T09:57:05.423Z,974.45
2018-06-11T09:58:05.620Z,974.45
2018-06-11T09:59:05.934Z,974.65
2018-06-11T10:00:06.106Z,974.53
2018-06-11T10:01:10.142Z,974.51
2018-06-11T10:02:06.013Z,974.59
2018-06-11T10:03:10.011Z,974.59
2018-06-11T10:04:05.929Z,974.50
2018-06-11T10:05:05.355Z,974.56
2018-06-11T10:06:05.064Z,974.53
2018-06-11T10:07:06.394Z,974.47
2018-06-11T10:08:05.420Z,974.39
2018-06-11T10:09:05.651Z,974.56
2018-06-11T10:10:05.616Z,974.56
2018-06-11T10:11:05.690Z,974.44
2018-06-11T10:12:10.991Z,974.62
2018-06-11T10:13:05.877Z,974.44
2018-06-11T10:14:05.245Z,974.44
2018-06-11T10:15:05.384Z,974.50
2018-06-11T10:16:06.177Z,974.53
2018-06-11T10:17:05.330Z,974.53
2018-06-11T10:18:05.904Z,974.53
2018-06-11T10:19:05.762Z,974.67
2018-06-11T10:20:05.573Z,974.50
2018-06-11T10:21:06.030Z,974.58
2018-06-11T10:22:05.141Z,974.55
2018-06-11T10:23:06.305Z,974.47
2018-06-11T10:24:05.423Z,974.47
2018-06-11T10:25:05.411Z,974.47
2018-06-11T10:26:05.295Z,974.41
2018-06-11T10:27:06.011Z,974.47
2018-06-11T10:28:05.412Z,974.41
2018-06-11T10:29:05.845Z,974.32
2018-06-11T10:30:05.129Z,974.47
2018-06-11T10:31:05.166Z,974.49
2018-06-11T10:32:05.348Z,974.58
2018-06-11T10:33:05.986Z,974.52
2018-06-11T10:34:06.315Z,974.55
2018-06-11T10:35:10.752Z,974.61
2018-06-11T10:36:05.185Z,974.58
2018-06-11T10:37:06.018Z,974.46
2018-06-11T10:38:05.731Z,974.46
2018-06-11T10:39:06.062Z,974.55
2018-06-11T10:40:05.120Z,974.46
2018-06-11T10:41:06.276Z,974.52
2018-06-11T10:42:05.323Z,974.55
2018-06-11T10:43:05.613Z,974.58
2018-06-11T10:44:05.551Z,974.58
2018-06-11T10:45:05.289Z,974.69
2018-06-11T10:46:05.532Z,974.60
2018-06-11T10:47:05.151Z,974.60
2018-06-11T10:48:05.700Z,974.55
2018-06-11T10:49:06.142Z,974.58
2018-06-11T10:50:06.236Z,974.63
2018-06-11T10:51:05.086Z,974.52
2018-06-11T10:52:06.376Z,974.60
2018-06-11T10:53:06.364Z,974.61
2018-06-11T10:54:05.862Z,974.60
2018-06-11T10:55:05.911Z,974.63
2018-06-11T10:56:05.591Z,974.49
2018-06-11T10:57:05.981Z,974.55
2018-06-11T10:58:05.624Z,974.55
2018-06-11T10:59:05.066Z,974.52
2018-06-11T11:00:05.006Z,974.60
2018-06-11T11:01:05.067Z,974.57
2018-06-11T11:02:05.465Z,974.69
2018-06-11T11:03:05.456Z,974.72
2018-06-11T11:04:05.226Z,974.63
2018-06-11T11:05:05.805Z,974.66
2018-06-11T11:06:06.035Z,974.51
2018-06-11T11:07:05.902Z,974.60
2018-06-11T11:08:05.373Z,974.54
2018-06-11T11:09:05.548Z,974.65
2018-06-11T11:10:07.410Z,974.54
2018-06-11T11:11:05.469Z,974.68
2018-06-11T11:12:10.397Z,974.57
2018-06-11T11:13:05.422Z,974.51
2018-06-11T11:14:05.545Z,974.51
2018-06-11T11:15:05.063Z,974.39
2018-06-11T11:16:06.025Z,974.39
2018-06-11T11:17:05.018Z,974.30
2018-06-11T11:18:06.082Z,974.27
2018-06-11T11:19:05.628Z,974.39
2018-06-11T11:20:05.698Z,974.33
2018-06-11T11:21:05.725Z,974.27
2018-06-11T11:22:05.674Z,974.24
2018-06-11T11:23:05.660Z,974.27
2018-06-11T11:24:05.836Z,974.30
2018-06-11T11:25:05.805Z,974.15
2018-06-11T11:26:04.976Z,974.21
2018-06-11T11:27:05.656Z,974.18
2018-06-11T11:28:06.280Z,974.17
2018-06-11T11:29:05.646Z,974.11
2018-06-11T11:30:05.560Z,974.05
2018-06-11T11:31:05.519Z,974.16
2018-06-11T11:32:05.616Z,974.11
2018-06-11T11:33:05.599Z,973.96
2018-06-11T11:34:05.155Z,974.02
2018-06-11T11:35:05.288Z,973.87
2018-06-11T11:36:05.075Z,973.84
2018-06-11T11:37:05.380Z,973.93
2018-06-11T11:38:05.315Z,973.96
2018-06-11T11:39:06.604Z,974.10
2018-06-11T11:40:05.235Z,974.07
2018-06-11T11:41:05.219Z,973.95
2018-06-11T11:42:05.693Z,973.98
2018-06-11T11:43:05.624Z,973.95
2018-06-11T11:44:05.787Z,973.83
2018-06-11T11:45:05.395Z,973.83
2018-06-11T11:46:06.148Z,973.74
2018-06-11T11:47:05.723Z,973.77
2018-06-11T11:48:05.777Z,973.77
2018-06-11T11:49:05.693Z,973.83
2018-06-11T11:50:05.375Z,973.80
2018-06-11T11:51:05.565Z,973.68
2018-06-11T11:52:05.960Z,973.77
2018-06-11T11:53:04.981Z,973.74
2018-06-11T11:54:05.164Z,973.71
2018-06-11T11:55:05.112Z,973.65
2018-06-11T11:56:05.153Z,973.61
2018-06-11T11:57:06.415Z,973.70
2018-06-11T11:58:05.733Z,973.64
2018-06-11T11:59:05.475Z,973.72
2018-06-11T12:00:05.953Z,973.55
2018-06-11T12:01:04.986Z,973.52
2018-06-11T12:02:05.007Z,973.57
2018-06-11T12:03:05.303Z,973.40
2018-06-11T12:04:05.448Z,973.45
2018-06-11T12:05:06.085Z,973.54
2018-06-11T12:06:05.121Z,973.45
2018-06-11T12:07:05.871Z,973.55
2018-06-11T12:08:05.580Z,973.47
2018-06-11T12:09:05.297Z,973.45
2018-06-11T12:10:05.318Z,973.53
2018-06-11T12:11:05.606Z,973.50
2018-06-11T12:12:05.704Z,973.61
2018-06-11T12:13:05.123Z,973.53
2018-06-11T12:14:05.024Z,973.50
2018-06-11T12:15:05.080Z,973.53
2018-06-11T12:16:05.345Z,973.64
2018-06-11T12:17:05.541Z,973.64
2018-06-11T12:18:05.592Z,973.67
2018-06-11T12:19:05.163Z,973.72
2018-06-11T12:20:10.707Z,973.72
2018-06-11T12:21:05.773Z,973.72
2018-06-11T12:22:05.343Z,973.75
2018-06-11T12:23:06.130Z,973.84
2018-06-11T12:24:05.072Z,973.67
2018-06-11T12:25:05.185Z,973.75
2018-06-11T12:26:05.516Z,973.87
2018-06-11T12:27:05.461Z,973.90
2018-06-11T12:28:05.108Z,973.81